sensor_id;sensor_type;location;lat;lon;timestamp;P1;durP1;ratioP1;P2;durP2;ratioP2
63902;SDS011;50072;50.678;13.938;2023-07-22T00:01:05;5.15;;;3.45;;
63902;SDS011;50072;50.678;13.938;2023-07-22T00:03:36;6.80;;;3.45;;
63902;SDS011;50072;50.678;13.938;2023-07-22T00:06:06;5.22;;;3.47;;
63902;SDS011;50072;50.678;13.938;2023-07-22T00:08:37;6.05;;;4.18;;
63902;SDS011;50072;50.678;13.938;2023-07-22T00:11:04;5.47;;;3.45;;
63902;SDS011;50072;50.678;13.938;2023-07-22T00:13:33;5.30;;;3.72;;
63902;SDS011;50072;50.678;13.938;2023-07-22T00:16:01;6.60;;;3.85;;
63902;SDS011;50072;50.678;13.938;2023-07-22T00:18:29;8.10;;;3.85;;
63902;SDS011;50072;50.678;13.938;2023-07-22T00:20:57;4.95;;;3.70;;
63902;SDS011;50072;50.678;13.938;2023-07-22T00:23:23;5.20;;;3.78;;
63902;SDS011;50072;50.678;13.938;2023-07-22T00:25:51;6.18;;;3.90;;
63902;SDS011;50072;50.678;13.938;2023-07-22T00:28:16;5.50;;;3.58;;
63902;SDS011;50072;50.678;13.938;2023-07-22T00:30:44;5.40;;;3.65;;
63902;SDS011;50072;50.678;13.938;2023-07-22T00:33:09;7.95;;;4.05;;
63902;SDS011;50072;50.678;13.938;2023-07-22T00:35:35;5.25;;;3.50;;
63902;SDS011;50072;50.678;13.938;2023-07-22T00:38:01;6.10;;;3.53;;
63902;SDS011;50072;50.678;13.938;2023-07-22T00:40:28;5.30;;;3.65;;
63902;SDS011;50072;50.678;13.938;2023-07-22T00:42:57;5.35;;;3.42;;
63902;SDS011;50072;50.678;13.938;2023-07-22T00:45:23;6.20;;;3.72;;
63902;SDS011;50072;50.678;13.938;2023-07-22T00:47:51;6.13;;;3.47;;
63902;SDS011;50072;50.678;13.938;2023-07-22T00:50:17;6.00;;;3.65;;
63902;SDS011;50072;50.678;13.938;2023-07-22T00:52:43;6.00;;;3.60;;
63902;SDS011;50072;50.678;13.938;2023-07-22T00:55:09;6.05;;;3.22;;
63902;SDS011;50072;50.678;13.938;2023-07-22T00:57:36;5.60;;;3.42;;
63902;SDS011;50072;50.678;13.938;2023-07-22T01:00:02;5.90;;;3.85;;
63902;SDS011;50072;50.678;13.938;2023-07-22T01:02:31;5.38;;;3.53;;
63902;SDS011;50072;50.678;13.938;2023-07-22T01:04:59;4.45;;;3.35;;
63902;SDS011;50072;50.678;13.938;2023-07-22T01:07:26;5.32;;;3.60;;
63902;SDS011;50072;50.678;13.938;2023-07-22T01:09:55;4.63;;;2.95;;
63902;SDS011;50072;50.678;13.938;2023-07-22T01:12:23;5.45;;;3.28;;
63902;SDS011;50072;50.678;13.938;2023-07-22T01:14:50;5.45;;;3.40;;
63902;SDS011;50072;50.678;13.938;2023-07-22T01:17:16;5.85;;;3.22;;
63902;SDS011;50072;50.678;13.938;2023-07-22T01:19:41;4.85;;;3.35;;
63902;SDS011;50072;50.678;13.938;2023-07-22T01:22:08;5.32;;;3.25;;
63902;SDS011;50072;50.678;13.938;2023-07-22T01:24:34;4.50;;;3.05;;
63902;SDS011;50072;50.678;13.938;2023-07-22T01:27:01;5.80;;;3.60;;
63902;SDS011;50072;50.678;13.938;2023-07-22T01:29:29;7.93;;;3.67;;
63902;SDS011;50072;50.678;13.938;2023-07-22T01:31:55;7.10;;;3.20;;
63902;SDS011;50072;50.678;13.938;2023-07-22T01:34:22;7.10;;;4.18;;
63902;SDS011;50072;50.678;13.938;2023-07-22T01:36:56;6.57;;;3.42;;
63902;SDS011;50072;50.678;13.938;2023-07-22T01:39:23;5.72;;;3.22;;
63902;SDS011;50072;50.678;13.938;2023-07-22T01:41:52;6.75;;;3.40;;
63902;SDS011;50072;50.678;13.938;2023-07-22T01:46:53;6.25;;;3.50;;
63902;SDS011;50072;50.678;13.938;2023-07-22T01:49:25;7.53;;;3.80;;
63902;SDS011;50072;50.678;13.938;2023-07-22T01:51:53;5.25;;;3.17;;
63902;SDS011;50072;50.678;13.938;2023-07-22T01:54:27;5.05;;;3.10;;
63902;SDS011;50072;50.678;13.938;2023-07-22T01:56:54;6.75;;;3.38;;
63902;SDS011;50072;50.678;13.938;2023-07-22T01:59:21;6.80;;;3.30;;
63902;SDS011;50072;50.678;13.938;2023-07-22T02:01:47;6.65;;;3.60;;
63902;SDS011;50072;50.678;13.938;2023-07-22T02:04:13;4.88;;;3.25;;
63902;SDS011;50072;50.678;13.938;2023-07-22T02:06:39;5.32;;;3.10;;
63902;SDS011;50072;50.678;13.938;2023-07-22T02:09:06;4.78;;;3.33;;
63902;SDS011;50072;50.678;13.938;2023-07-22T02:11:36;7.45;;;3.40;;
63902;SDS011;50072;50.678;13.938;2023-07-22T02:14:02;6.53;;;3.72;;
63902;SDS011;50072;50.678;13.938;2023-07-22T02:16:33;5.78;;;3.60;;
63902;SDS011;50072;50.678;13.938;2023-07-22T02:19:02;4.40;;;3.10;;
63902;SDS011;50072;50.678;13.938;2023-07-22T02:21:29;7.30;;;3.15;;
63902;SDS011;50072;50.678;13.938;2023-07-22T02:23:55;10.18;;;3.80;;
63902;SDS011;50072;50.678;13.938;2023-07-22T02:26:21;5.13;;;3.25;;
63902;SDS011;50072;50.678;13.938;2023-07-22T02:28:47;5.93;;;3.30;;
63902;SDS011;50072;50.678;13.938;2023-07-22T02:31:13;6.72;;;3.65;;
63902;SDS011;50072;50.678;13.938;2023-07-22T02:33:39;6.78;;;3.60;;
63902;SDS011;50072;50.678;13.938;2023-07-22T02:36:07;6.28;;;3.25;;
63902;SDS011;50072;50.678;13.938;2023-07-22T02:38:32;6.53;;;3.72;;
63902;SDS011;50072;50.678;13.938;2023-07-22T02:41:04;5.82;;;3.00;;
63902;SDS011;50072;50.678;13.938;2023-07-22T02:43:32;5.55;;;3.75;;
63902;SDS011;50072;50.678;13.938;2023-07-22T02:45:59;7.22;;;3.33;;
63902;SDS011;50072;50.678;13.938;2023-07-22T02:48:30;5.82;;;3.72;;
63902;SDS011;50072;50.678;13.938;2023-07-22T02:51:06;5.13;;;3.47;;
63902;SDS011;50072;50.678;13.938;2023-07-22T02:53:33;6.10;;;3.58;;
63902;SDS011;50072;50.678;13.938;2023-07-22T02:56:00;8.25;;;3.40;;
63902;SDS011;50072;50.678;13.938;2023-07-22T02:58:27;5.78;;;3.47;;
63902;SDS011;50072;50.678;13.938;2023-07-22T03:00:53;7.50;;;4.25;;
63902;SDS011;50072;50.678;13.938;2023-07-22T03:03:20;5.45;;;3.97;;
63902;SDS011;50072;50.678;13.938;2023-07-22T03:05:46;6.72;;;4.03;;
63902;SDS011;50072;50.678;13.938;2023-07-22T03:08:13;7.15;;;4.57;;
63902;SDS011;50072;50.678;13.938;2023-07-22T03:10:38;6.60;;;4.25;;
63902;SDS011;50072;50.678;13.938;2023-07-22T03:13:04;7.40;;;4.20;;
63902;SDS011;50072;50.678;13.938;2023-07-22T03:15:30;6.82;;;4.18;;
63902;SDS011;50072;50.678;13.938;2023-07-22T03:17:58;7.45;;;3.88;;
63902;SDS011;50072;50.678;13.938;2023-07-22T03:20:25;7.57;;;4.15;;
63902;SDS011;50072;50.678;13.938;2023-07-22T03:22:51;5.10;;;3.65;;
63902;SDS011;50072;50.678;13.938;2023-07-22T03:25:19;7.03;;;4.25;;
63902;SDS011;50072;50.678;13.938;2023-07-22T03:27:46;8.95;;;4.60;;
63902;SDS011;50072;50.678;13.938;2023-07-22T03:30:13;6.55;;;4.40;;
63902;SDS011;50072;50.678;13.938;2023-07-22T03:32:46;6.13;;;4.25;;
63902;SDS011;50072;50.678;13.938;2023-07-22T03:35:18;7.22;;;4.78;;
63902;SDS011;50072;50.678;13.938;2023-07-22T03:37:44;7.68;;;4.65;;
63902;SDS011;50072;50.678;13.938;2023-07-22T03:40:10;8.10;;;5.03;;
63902;SDS011;50072;50.678;13.938;2023-07-22T03:42:41;8.30;;;5.35;;
63902;SDS011;50072;50.678;13.938;2023-07-22T03:45:07;9.38;;;4.90;;
63902;SDS011;50072;50.678;13.938;2023-07-22T03:47:36;10.95;;;5.15;;
63902;SDS011;50072;50.678;13.938;2023-07-22T03:50:03;6.78;;;4.72;;
63902;SDS011;50072;50.678;13.938;2023-07-22T03:52:36;9.38;;;5.38;;
63902;SDS011;50072;50.678;13.938;2023-07-22T03:55:09;7.97;;;5.15;;
63902;SDS011;50072;50.678;13.938;2023-07-22T03:57:52;12.52;;;5.78;;
63902;SDS011;50072;50.678;13.938;2023-07-22T04:00:23;7.53;;;5.32;;
63902;SDS011;50072;50.678;13.938;2023-07-22T04:05:19;9.98;;;5.75;;
63902;SDS011;50072;50.678;13.938;2023-07-22T04:07:46;8.45;;;5.30;;
63902;SDS011;50072;50.678;13.938;2023-07-22T04:10:12;8.27;;;5.45;;
63902;SDS011;50072;50.678;13.938;2023-07-22T04:12:38;8.20;;;5.30;;
63902;SDS011;50072;50.678;13.938;2023-07-22T04:15:05;7.45;;;5.18;;
63902;SDS011;50072;50.678;13.938;2023-07-22T04:17:31;6.95;;;5.22;;
63902;SDS011;50072;50.678;13.938;2023-07-22T04:19:56;8.07;;;5.80;;
63902;SDS011;50072;50.678;13.938;2023-07-22T04:22:23;7.72;;;5.25;;
63902;SDS011;50072;50.678;13.938;2023-07-22T04:24:49;8.40;;;5.00;;
63902;SDS011;50072;50.678;13.938;2023-07-22T04:27:21;9.80;;;5.10;;
63902;SDS011;50072;50.678;13.938;2023-07-22T04:32:16;9.95;;;5.07;;
63902;SDS011;50072;50.678;13.938;2023-07-22T04:34:43;7.95;;;4.85;;
63902;SDS011;50072;50.678;13.938;2023-07-22T04:37:10;6.78;;;4.95;;
63902;SDS011;50072;50.678;13.938;2023-07-22T04:39:36;8.95;;;5.35;;
63902;SDS011;50072;50.678;13.938;2023-07-22T04:42:03;8.65;;;4.88;;
63902;SDS011;50072;50.678;13.938;2023-07-22T04:44:30;10.15;;;5.22;;
63902;SDS011;50072;50.678;13.938;2023-07-22T04:46:57;10.20;;;5.18;;
63902;SDS011;50072;50.678;13.938;2023-07-22T04:49:23;9.30;;;4.97;;
63902;SDS011;50072;50.678;13.938;2023-07-22T04:51:49;9.85;;;5.22;;
63902;SDS011;50072;50.678;13.938;2023-07-22T04:54:15;8.73;;;5.00;;
63902;SDS011;50072;50.678;13.938;2023-07-22T04:56:43;7.07;;;5.18;;
63902;SDS011;50072;50.678;13.938;2023-07-22T04:59:10;7.50;;;4.75;;
63902;SDS011;50072;50.678;13.938;2023-07-22T05:01:39;7.60;;;5.07;;
63902;SDS011;50072;50.678;13.938;2023-07-22T05:04:05;9.50;;;4.88;;
63902;SDS011;50072;50.678;13.938;2023-07-22T05:06:32;9.15;;;4.75;;
63902;SDS011;50072;50.678;13.938;2023-07-22T05:08:59;7.07;;;5.07;;
63902;SDS011;50072;50.678;13.938;2023-07-22T05:11:25;9.07;;;5.25;;
63902;SDS011;50072;50.678;13.938;2023-07-22T05:13:52;14.85;;;5.35;;
63902;SDS011;50072;50.678;13.938;2023-07-22T05:16:19;6.38;;;4.68;;
63902;SDS011;50072;50.678;13.938;2023-07-22T05:18:46;11.57;;;5.15;;
63902;SDS011;50072;50.678;13.938;2023-07-22T05:21:13;9.70;;;5.60;;
63902;SDS011;50072;50.678;13.938;2023-07-22T05:23:38;13.98;;;5.55;;
63902;SDS011;50072;50.678;13.938;2023-07-22T05:26:05;8.95;;;5.40;;
63902;SDS011;50072;50.678;13.938;2023-07-22T05:28:31;8.27;;;5.25;;
63902;SDS011;50072;50.678;13.938;2023-07-22T05:30:57;9.32;;;5.45;;
63902;SDS011;50072;50.678;13.938;2023-07-22T05:33:23;9.55;;;5.85;;
63902;SDS011;50072;50.678;13.938;2023-07-22T05:35:50;10.13;;;6.40;;
63902;SDS011;50072;50.678;13.938;2023-07-22T05:38:15;8.40;;;5.18;;
63902;SDS011;50072;50.678;13.938;2023-07-22T05:43:10;9.50;;;5.85;;
63902;SDS011;50072;50.678;13.938;2023-07-22T05:45:38;9.80;;;5.82;;
63902;SDS011;50072;50.678;13.938;2023-07-22T05:48:04;8.52;;;5.90;;
63902;SDS011;50072;50.678;13.938;2023-07-22T05:50:30;9.93;;;5.47;;
63902;SDS011;50072;50.678;13.938;2023-07-22T05:52:56;7.07;;;5.07;;
63902;SDS011;50072;50.678;13.938;2023-07-22T05:55:22;7.57;;;5.05;;
63902;SDS011;50072;50.678;13.938;2023-07-22T05:57:52;11.20;;;5.18;;
63902;SDS011;50072;50.678;13.938;2023-07-22T06:02:53;6.72;;;4.78;;
63902;SDS011;50072;50.678;13.938;2023-07-22T06:08:04;13.52;;;4.90;;
63902;SDS011;50072;50.678;13.938;2023-07-22T06:10:31;9.80;;;5.70;;
63902;SDS011;50072;50.678;13.938;2023-07-22T06:13:03;8.30;;;5.22;;
63902;SDS011;50072;50.678;13.938;2023-07-22T06:15:30;7.10;;;5.20;;
63902;SDS011;50072;50.678;13.938;2023-07-22T06:17:56;9.05;;;4.95;;
63902;SDS011;50072;50.678;13.938;2023-07-22T06:20:23;7.40;;;5.22;;
63902;SDS011;50072;50.678;13.938;2023-07-22T06:22:56;9.68;;;5.63;;
63902;SDS011;50072;50.678;13.938;2023-07-22T06:25:23;10.27;;;4.85;;
63902;SDS011;50072;50.678;13.938;2023-07-22T06:27:56;6.78;;;5.00;;
63902;SDS011;50072;50.678;13.938;2023-07-22T06:30:22;9.80;;;5.68;;
63902;SDS011;50072;50.678;13.938;2023-07-22T06:32:49;8.38;;;4.95;;
63902;SDS011;50072;50.678;13.938;2023-07-22T06:35:14;9.32;;;4.95;;
63902;SDS011;50072;50.678;13.938;2023-07-22T06:37:41;6.70;;;4.97;;
63902;SDS011;50072;50.678;13.938;2023-07-22T06:40:07;9.93;;;5.22;;
63902;SDS011;50072;50.678;13.938;2023-07-22T06:42:33;7.05;;;5.10;;
63902;SDS011;50072;50.678;13.938;2023-07-22T06:45:02;8.32;;;4.88;;
63902;SDS011;50072;50.678;13.938;2023-07-22T06:47:31;11.23;;;4.70;;
63902;SDS011;50072;50.678;13.938;2023-07-22T06:49:56;6.53;;;4.97;;
63902;SDS011;50072;50.678;13.938;2023-07-22T06:52:23;6.10;;;4.45;;
63902;SDS011;50072;50.678;13.938;2023-07-22T06:54:49;6.93;;;4.82;;
63902;SDS011;50072;50.678;13.938;2023-07-22T06:57:16;8.00;;;4.75;;
63902;SDS011;50072;50.678;13.938;2023-07-22T06:59:43;7.72;;;4.80;;
63902;SDS011;50072;50.678;13.938;2023-07-22T07:02:08;8.73;;;4.05;;
63902;SDS011;50072;50.678;13.938;2023-07-22T07:04:34;6.70;;;4.05;;
63902;SDS011;50072;50.678;13.938;2023-07-22T07:07:01;6.97;;;4.03;;
63902;SDS011;50072;50.678;13.938;2023-07-22T07:09:30;5.28;;;3.75;;
63902;SDS011;50072;50.678;13.938;2023-07-22T07:11:56;9.90;;;4.53;;
63902;SDS011;50072;50.678;13.938;2023-07-22T07:14:22;6.50;;;3.45;;
63902;SDS011;50072;50.678;13.938;2023-07-22T07:16:50;4.68;;;3.08;;
63902;SDS011;50072;50.678;13.938;2023-07-22T07:19:15;6.65;;;3.17;;
63902;SDS011;50072;50.678;13.938;2023-07-22T07:21:46;6.93;;;3.30;;
63902;SDS011;50072;50.678;13.938;2023-07-22T07:24:13;5.87;;;3.60;;
63902;SDS011;50072;50.678;13.938;2023-07-22T07:26:38;6.22;;;3.58;;
63902;SDS011;50072;50.678;13.938;2023-07-22T07:29:04;6.28;;;3.67;;
63902;SDS011;50072;50.678;13.938;2023-07-22T07:31:33;6.60;;;3.40;;
63902;SDS011;50072;50.678;13.938;2023-07-22T07:34:00;6.65;;;3.70;;
63902;SDS011;50072;50.678;13.938;2023-07-22T07:36:26;8.32;;;3.70;;
63902;SDS011;50072;50.678;13.938;2023-07-22T07:38:52;8.32;;;3.78;;
63902;SDS011;50072;50.678;13.938;2023-07-22T07:41:18;6.28;;;3.67;;
63902;SDS011;50072;50.678;13.938;2023-07-22T07:43:44;6.63;;;3.70;;
63902;SDS011;50072;50.678;13.938;2023-07-22T07:48:44;6.93;;;3.33;;
63902;SDS011;50072;50.678;13.938;2023-07-22T07:51:11;6.95;;;4.40;;
63902;SDS011;50072;50.678;13.938;2023-07-22T07:53:38;7.22;;;4.07;;
63902;SDS011;50072;50.678;13.938;2023-07-22T07:56:04;5.57;;;3.60;;
63902;SDS011;50072;50.678;13.938;2023-07-22T07:58:30;5.97;;;3.63;;
63902;SDS011;50072;50.678;13.938;2023-07-22T08:00:58;7.00;;;3.95;;
63902;SDS011;50072;50.678;13.938;2023-07-22T08:03:23;5.18;;;3.25;;
63902;SDS011;50072;50.678;13.938;2023-07-22T08:05:50;7.07;;;3.63;;
63902;SDS011;50072;50.678;13.938;2023-07-22T08:08:16;8.57;;;3.25;;
63902;SDS011;50072;50.678;13.938;2023-07-22T08:10:44;6.35;;;3.22;;
63902;SDS011;50072;50.678;13.938;2023-07-22T08:13:10;6.00;;;3.30;;
63902;SDS011;50072;50.678;13.938;2023-07-22T08:15:52;6.38;;;3.60;;
63902;SDS011;50072;50.678;13.938;2023-07-22T08:18:24;6.50;;;3.58;;
63902;SDS011;50072;50.678;13.938;2023-07-22T08:21:00;5.93;;;3.50;;
63902;SDS011;50072;50.678;13.938;2023-07-22T08:26:13;5.88;;;4.15;;
63902;SDS011;50072;50.678;13.938;2023-07-22T08:28:40;4.22;;;3.00;;
63902;SDS011;50072;50.678;13.938;2023-07-22T08:31:06;5.13;;;3.28;;
63902;SDS011;50072;50.678;13.938;2023-07-22T08:33:31;5.18;;;3.50;;
63902;SDS011;50072;50.678;13.938;2023-07-22T08:35:57;5.30;;;3.20;;
63902;SDS011;50072;50.678;13.938;2023-07-22T08:38:23;4.78;;;2.70;;
63902;SDS011;50072;50.678;13.938;2023-07-22T08:40:50;5.70;;;2.92;;
63902;SDS011;50072;50.678;13.938;2023-07-22T08:43:22;4.95;;;2.85;;
63902;SDS011;50072;50.678;13.938;2023-07-22T08:45:50;7.18;;;3.10;;
63902;SDS011;50072;50.678;13.938;2023-07-22T08:48:20;5.95;;;2.75;;
63902;SDS011;50072;50.678;13.938;2023-07-22T08:53:31;5.38;;;2.92;;
63902;SDS011;50072;50.678;13.938;2023-07-22T08:55:58;6.05;;;2.58;;
63902;SDS011;50072;50.678;13.938;2023-07-22T08:58:24;4.70;;;2.60;;
63902;SDS011;50072;50.678;13.938;2023-07-22T09:00:51;4.93;;;3.00;;
63902;SDS011;50072;50.678;13.938;2023-07-22T09:03:18;5.32;;;2.65;;
63902;SDS011;50072;50.678;13.938;2023-07-22T09:05:46;6.03;;;3.10;;
63902;SDS011;50072;50.678;13.938;2023-07-22T09:08:13;4.50;;;2.78;;
63902;SDS011;50072;50.678;13.938;2023-07-22T09:10:38;6.20;;;2.88;;
63902;SDS011;50072;50.678;13.938;2023-07-22T09:13:05;3.95;;;2.70;;
63902;SDS011;50072;50.678;13.938;2023-07-22T09:15:31;4.22;;;2.80;;
63902;SDS011;50072;50.678;13.938;2023-07-22T09:18:02;4.20;;;2.50;;
63902;SDS011;50072;50.678;13.938;2023-07-22T09:20:28;4.70;;;2.60;;
63902;SDS011;50072;50.678;13.938;2023-07-22T09:22:55;7.40;;;2.25;;
63902;SDS011;50072;50.678;13.938;2023-07-22T09:25:21;4.45;;;2.60;;
63902;SDS011;50072;50.678;13.938;2023-07-22T09:27:48;4.55;;;2.30;;
63902;SDS011;50072;50.678;13.938;2023-07-22T09:30:31;4.32;;;2.70;;
63902;SDS011;50072;50.678;13.938;2023-07-22T09:33:01;4.03;;;2.30;;
63902;SDS011;50072;50.678;13.938;2023-07-22T09:35:28;6.25;;;2.50;;
63902;SDS011;50072;50.678;13.938;2023-07-22T09:37:55;3.78;;;2.10;;
63902;SDS011;50072;50.678;13.938;2023-07-22T09:42:56;6.68;;;2.50;;
63902;SDS011;50072;50.678;13.938;2023-07-22T09:45:28;4.20;;;2.25;;
63902;SDS011;50072;50.678;13.938;2023-07-22T09:47:55;4.50;;;2.50;;
63902;SDS011;50072;50.678;13.938;2023-07-22T09:50:22;4.88;;;2.47;;
63902;SDS011;50072;50.678;13.938;2023-07-22T09:55:26;2.80;;;1.80;;
63902;SDS011;50072;50.678;13.938;2023-07-22T09:57:54;3.38;;;2.10;;
63902;SDS011;50072;50.678;13.938;2023-07-22T10:00:23;5.10;;;2.17;;
63902;SDS011;50072;50.678;13.938;2023-07-22T10:02:51;4.88;;;2.35;;
63902;SDS011;50072;50.678;13.938;2023-07-22T10:05:18;3.33;;;1.92;;
63902;SDS011;50072;50.678;13.938;2023-07-22T10:07:49;4.25;;;2.38;;
63902;SDS011;50072;50.678;13.938;2023-07-22T10:10:17;5.00;;;2.60;;
63902;SDS011;50072;50.678;13.938;2023-07-22T10:12:45;4.15;;;2.60;;
63902;SDS011;50072;50.678;13.938;2023-07-22T10:15:13;3.60;;;2.10;;
63902;SDS011;50072;50.678;13.938;2023-07-22T10:17:40;4.75;;;2.63;;
63902;SDS011;50072;50.678;13.938;2023-07-22T10:20:08;3.22;;;2.00;;
63902;SDS011;50072;50.678;13.938;2023-07-22T10:22:41;5.53;;;2.17;;
63902;SDS011;50072;50.678;13.938;2023-07-22T10:25:08;3.83;;;2.35;;
63902;SDS011;50072;50.678;13.938;2023-07-22T10:27:39;4.25;;;2.10;;
63902;SDS011;50072;50.678;13.938;2023-07-22T10:30:08;4.60;;;2.25;;
63902;SDS011;50072;50.678;13.938;2023-07-22T10:32:53;3.20;;;2.00;;
63902;SDS011;50072;50.678;13.938;2023-07-22T10:38:06;3.75;;;2.00;;
63902;SDS011;50072;50.678;13.938;2023-07-22T10:43:30;2.60;;;1.80;;
63902;SDS011;50072;50.678;13.938;2023-07-22T10:45:58;3.85;;;1.77;;
63902;SDS011;50072;50.678;13.938;2023-07-22T10:48:35;5.43;;;1.85;;
63902;SDS011;50072;50.678;13.938;2023-07-22T10:51:20;3.05;;;1.63;;
63902;SDS011;50072;50.678;13.938;2023-07-22T10:53:52;2.55;;;1.63;;
63902;SDS011;50072;50.678;13.938;2023-07-22T10:56:19;3.00;;;1.75;;
63902;SDS011;50072;50.678;13.938;2023-07-22T11:11:57;2.60;;;1.50;;
63902;SDS011;50072;50.678;13.938;2023-07-22T11:14:32;2.75;;;1.90;;
63902;SDS011;50072;50.678;13.938;2023-07-22T11:17:09;3.67;;;1.48;;
63902;SDS011;50072;50.678;13.938;2023-07-22T11:19:38;2.67;;;1.60;;
63902;SDS011;50072;50.678;13.938;2023-07-22T11:22:04;4.50;;;1.60;;
63902;SDS011;50072;50.678;13.938;2023-07-22T11:24:33;2.65;;;1.70;;
63902;SDS011;50072;50.678;13.938;2023-07-22T11:27:04;3.05;;;1.70;;
63902;SDS011;50072;50.678;13.938;2023-07-22T11:29:32;2.60;;;1.60;;
63902;SDS011;50072;50.678;13.938;2023-07-22T11:31:58;2.60;;;1.50;;
63902;SDS011;50072;50.678;13.938;2023-07-22T11:34:25;2.97;;;1.70;;
63902;SDS011;50072;50.678;13.938;2023-07-22T11:36:52;5.32;;;1.60;;
63902;SDS011;50072;50.678;13.938;2023-07-22T11:39:19;2.45;;;1.60;;
63902;SDS011;50072;50.678;13.938;2023-07-22T11:41:47;2.20;;;1.50;;
63902;SDS011;50072;50.678;13.938;2023-07-22T11:44:16;3.17;;;1.77;;
63902;SDS011;50072;50.678;13.938;2023-07-22T11:46:52;3.15;;;1.65;;
63902;SDS011;50072;50.678;13.938;2023-07-22T11:49:30;3.08;;;1.55;;
63902;SDS011;50072;50.678;13.938;2023-07-22T11:51:57;3.70;;;1.80;;
63902;SDS011;50072;50.678;13.938;2023-07-22T11:54:25;3.22;;;1.67;;
63902;SDS011;50072;50.678;13.938;2023-07-22T11:56:52;3.58;;;1.40;;
63902;SDS011;50072;50.678;13.938;2023-07-22T11:59:40;2.42;;;1.65;;
63902;SDS011;50072;50.678;13.938;2023-07-22T12:02:13;2.05;;;1.30;;
63902;SDS011;50072;50.678;13.938;2023-07-22T12:04:40;2.25;;;1.38;;
63902;SDS011;50072;50.678;13.938;2023-07-22T12:07:07;2.70;;;1.67;;
63902;SDS011;50072;50.678;13.938;2023-07-22T12:09:58;3.35;;;1.90;;
63902;SDS011;50072;50.678;13.938;2023-07-22T12:12:39;2.95;;;1.70;;
63902;SDS011;50072;50.678;13.938;2023-07-22T12:15:11;3.15;;;1.60;;
63902;SDS011;50072;50.678;13.938;2023-07-22T12:17:52;3.17;;;1.80;;
63902;SDS011;50072;50.678;13.938;2023-07-22T12:20:18;2.58;;;1.63;;
63902;SDS011;50072;50.678;13.938;2023-07-22T12:22:48;2.63;;;1.80;;
63902;SDS011;50072;50.678;13.938;2023-07-22T12:25:14;3.05;;;1.83;;
63902;SDS011;50072;50.678;13.938;2023-07-22T12:27:39;3.25;;;2.00;;
63902;SDS011;50072;50.678;13.938;2023-07-22T12:30:05;3.10;;;1.73;;
63902;SDS011;50072;50.678;13.938;2023-07-22T12:32:32;5.03;;;2.05;;
63902;SDS011;50072;50.678;13.938;2023-07-22T12:34:58;4.22;;;1.90;;
63902;SDS011;50072;50.678;13.938;2023-07-22T12:37:25;2.60;;;1.58;;
63902;SDS011;50072;50.678;13.938;2023-07-22T12:39:51;4.47;;;1.77;;
63902;SDS011;50072;50.678;13.938;2023-07-22T12:42:22;2.53;;;1.50;;
63902;SDS011;50072;50.678;13.938;2023-07-22T12:44:53;3.13;;;1.95;;
63902;SDS011;50072;50.678;13.938;2023-07-22T12:49:50;4.45;;;1.83;;
63902;SDS011;50072;50.678;13.938;2023-07-22T12:52:16;4.88;;;2.03;;
63902;SDS011;50072;50.678;13.938;2023-07-22T12:57:23;3.50;;;2.00;;
63902;SDS011;50072;50.678;13.938;2023-07-22T12:59:56;3.70;;;1.95;;
63902;SDS011;50072;50.678;13.938;2023-07-22T13:02:23;3.78;;;2.20;;
63902;SDS011;50072;50.678;13.938;2023-07-22T13:04:50;3.95;;;1.80;;
63902;SDS011;50072;50.678;13.938;2023-07-22T13:07:23;3.22;;;2.00;;
63902;SDS011;50072;50.678;13.938;2023-07-22T13:12:23;4.70;;;1.85;;
63902;SDS011;50072;50.678;13.938;2023-07-22T13:14:51;2.83;;;1.92;;
63902;SDS011;50072;50.678;13.938;2023-07-22T13:17:17;3.03;;;1.73;;
63902;SDS011;50072;50.678;13.938;2023-07-22T13:19:50;3.38;;;1.90;;
63902;SDS011;50072;50.678;13.938;2023-07-22T13:22:23;3.10;;;2.00;;
63902;SDS011;50072;50.678;13.938;2023-07-22T13:24:52;3.67;;;2.05;;
63902;SDS011;50072;50.678;13.938;2023-07-22T13:27:18;2.90;;;1.77;;
63902;SDS011;50072;50.678;13.938;2023-07-22T13:29:52;4.20;;;2.03;;
63902;SDS011;50072;50.678;13.938;2023-07-22T13:32:17;3.17;;;2.00;;
63902;SDS011;50072;50.678;13.938;2023-07-22T13:34:53;3.00;;;1.95;;
63902;SDS011;50072;50.678;13.938;2023-07-22T13:37:20;2.90;;;2.08;;
63902;SDS011;50072;50.678;13.938;2023-07-22T13:39:53;2.95;;;1.90;;
63902;SDS011;50072;50.678;13.938;2023-07-22T13:42:19;3.55;;;2.03;;
63902;SDS011;50072;50.678;13.938;2023-07-22T13:44:46;2.70;;;1.80;;
63902;SDS011;50072;50.678;13.938;2023-07-22T13:49:41;3.10;;;1.80;;
63902;SDS011;50072;50.678;13.938;2023-07-22T13:52:07;2.60;;;1.75;;
63902;SDS011;50072;50.678;13.938;2023-07-22T13:54:34;2.78;;;1.70;;
63902;SDS011;50072;50.678;13.938;2023-07-22T13:56:59;2.67;;;1.90;;
63902;SDS011;50072;50.678;13.938;2023-07-22T13:59:26;2.67;;;1.98;;
63902;SDS011;50072;50.678;13.938;2023-07-22T14:01:53;6.28;;;2.00;;
63902;SDS011;50072;50.678;13.938;2023-07-22T14:04:19;2.60;;;1.80;;
63902;SDS011;50072;50.678;13.938;2023-07-22T14:06:45;3.45;;;1.95;;
63902;SDS011;50072;50.678;13.938;2023-07-22T14:09:12;4.43;;;2.10;;
63902;SDS011;50072;50.678;13.938;2023-07-22T14:11:39;3.35;;;2.08;;
63902;SDS011;50072;50.678;13.938;2023-07-22T14:14:06;3.08;;;2.00;;
63902;SDS011;50072;50.678;13.938;2023-07-22T14:16:31;2.28;;;1.60;;
63902;SDS011;50072;50.678;13.938;2023-07-22T14:18:59;4.50;;;1.83;;
63902;SDS011;50072;50.678;13.938;2023-07-22T14:21:27;2.70;;;1.92;;
63902;SDS011;50072;50.678;13.938;2023-07-22T14:23:53;3.13;;;1.95;;
63902;SDS011;50072;50.678;13.938;2023-07-22T14:26:23;3.78;;;2.38;;
63902;SDS011;50072;50.678;13.938;2023-07-22T14:28:51;6.22;;;2.22;;
63902;SDS011;50072;50.678;13.938;2023-07-22T14:31:18;3.10;;;2.15;;
63902;SDS011;50072;50.678;13.938;2023-07-22T14:33:44;3.00;;;1.85;;
63902;SDS011;50072;50.678;13.938;2023-07-22T14:36:11;3.70;;;2.40;;
63902;SDS011;50072;50.678;13.938;2023-07-22T14:38:53;3.53;;;1.90;;
63902;SDS011;50072;50.678;13.938;2023-07-22T14:41:24;3.40;;;1.98;;
63902;SDS011;50072;50.678;13.938;2023-07-22T14:43:53;4.00;;;2.17;;
63902;SDS011;50072;50.678;13.938;2023-07-22T14:46:19;4.25;;;2.40;;
63902;SDS011;50072;50.678;13.938;2023-07-22T14:48:44;4.25;;;2.20;;
63902;SDS011;50072;50.678;13.938;2023-07-22T14:51:11;2.70;;;2.08;;
63902;SDS011;50072;50.678;13.938;2023-07-22T14:53:38;4.10;;;2.20;;
63902;SDS011;50072;50.678;13.938;2023-07-22T14:56:03;3.20;;;2.10;;
63902;SDS011;50072;50.678;13.938;2023-07-22T14:58:45;5.85;;;2.28;;
63902;SDS011;50072;50.678;13.938;2023-07-22T15:01:21;5.43;;;2.67;;
63902;SDS011;50072;50.678;13.938;2023-07-22T15:06:24;3.80;;;2.10;;
63902;SDS011;50072;50.678;13.938;2023-07-22T15:08:53;3.78;;;2.20;;
63902;SDS011;50072;50.678;13.938;2023-07-22T15:11:23;3.55;;;2.25;;
63902;SDS011;50072;50.678;13.938;2023-07-22T15:13:54;3.35;;;2.17;;
63902;SDS011;50072;50.678;13.938;2023-07-22T15:16:23;3.53;;;2.20;;
63902;SDS011;50072;50.678;13.938;2023-07-22T15:18:55;3.40;;;2.17;;
63902;SDS011;50072;50.678;13.938;2023-07-22T15:21:20;3.78;;;2.28;;
63902;SDS011;50072;50.678;13.938;2023-07-22T15:23:46;5.13;;;2.45;;
63902;SDS011;50072;50.678;13.938;2023-07-22T15:26:18;4.07;;;2.40;;
63902;SDS011;50072;50.678;13.938;2023-07-22T15:28:45;3.78;;;2.45;;
63902;SDS011;50072;50.678;13.938;2023-07-22T15:31:12;6.00;;;2.60;;
63902;SDS011;50072;50.678;13.938;2023-07-22T15:33:39;4.00;;;2.42;;
63902;SDS011;50072;50.678;13.938;2023-07-22T15:36:04;3.92;;;2.47;;
63902;SDS011;50072;50.678;13.938;2023-07-22T15:38:31;5.53;;;2.33;;